createdAt,value
2018-06-02T00:00:27.636Z,15.59
2018-06-02T00:02:58.001Z,15.60
2018-06-02T00:05:35.252Z,15.57
2018-06-02T00:08:20.770Z,15.56
2018-06-02T00:10:49.842Z,15.57
2018-06-02T00:13:18.095Z,15.54
2018-06-02T00:15:53.318Z,15.58
2018-06-02T00:18:29.157Z,15.48
2018-06-02T00:20:57.567Z,15.51
2018-06-02T00:23:29.158Z,15.47
2018-06-02T00:26:02.857Z,15.46
2018-06-02T00:28:34.386Z,15.42
2018-06-02T00:31:06.211Z,15.37
2018-06-02T00:33:41.654Z,15.32
2018-06-02T00:36:13.664Z,15.30
2018-06-02T00:38:53.486Z,15.35
2018-06-02T00:41:27.251Z,15.37
2018-06-02T00:43:57.684Z,15.39
2018-06-02T00:46:37.940Z,15.39
2018-06-02T00:49:07.763Z,15.35
2018-06-02T00:51:40.439Z,15.28
2018-06-02T00:54:08.814Z,15.23
2018-06-02T00:56:38.464Z,15.20
2018-06-02T00:59:06.802Z,15.17
2018-06-02T01:01:36.523Z,15.13
2018-06-02T01:04:09.025Z,15.06
2018-06-02T01:06:38.541Z,15.05
2018-06-02T01:09:12.361Z,15.01
2018-06-02T01:11:47.318Z,14.97
2018-06-02T01:14:22.088Z,15.00
2018-06-02T01:16:50.653Z,14.98
2018-06-02T01:19:28.940Z,14.89
2018-06-02T01:21:58.264Z,14.77
2018-06-02T01:24:38.559Z,14.65
2018-06-02T01:27:07.138Z,14.56
2018-06-02T01:29:36.612Z,14.51
2018-06-02T01:32:10.704Z,14.57
2018-06-02T01:34:41.105Z,14.72
2018-06-02T01:37:13.492Z,14.80
2018-06-02T01:39:59.720Z,14.79
2018-06-02T01:42:28.176Z,14.80
2018-06-02T01:45:02.916Z,14.85
2018-06-02T01:47:38.803Z,14.89
2018-06-02T01:50:20.124Z,14.84
2018-06-02T01:52:48.872Z,14.81
2018-06-02T01:55:25.071Z,14.81
2018-06-02T01:57:59.175Z,14.75
2018-06-02T02:00:41.309Z,14.65
2018-06-02T02:03:13.478Z,14.53
2018-06-02T02:05:56.596Z,14.36
2018-06-02T02:08:25.656Z,14.27
2018-06-02T02:10:55.991Z,14.27
2018-06-02T02:13:24.247Z,14.30
2018-06-02T02:16:01.065Z,14.29
2018-06-02T02:18:31.373Z,14.25
2018-06-02T02:21:14.516Z,14.28
2018-06-02T02:23:46.762Z,14.25
2018-06-02T02:26:15.150Z,14.29
2018-06-02T02:28:51.762Z,14.32
2018-06-02T02:31:23.896Z,14.39
2018-06-02T02:33:53.994Z,14.46
2018-06-02T02:36:27.185Z,14.46
2018-06-02T02:38:57.565Z,14.53
2018-06-02T02:41:29.371Z,14.55
2018-06-02T02:44:10.475Z,14.52
2018-06-02T02:46:46.703Z,14.48
2018-06-02T02:49:18.688Z,14.39
2018-06-02T02:51:59.728Z,14.32
2018-06-02T02:54:35.375Z,14.33
2018-06-02T02:57:03.683Z,14.36
2018-06-02T02:59:31.954Z,14.39
2018-06-02T03:02:00.329Z,14.38
2018-06-02T03:04:35.053Z,14.39
2018-06-02T03:07:04.415Z,14.38
2018-06-02T03:09:36.858Z,14.34
2018-06-02T03:12:05.163Z,14.38
2018-06-02T03:14:34.460Z,14.43
2018-06-02T03:17:08.724Z,14.45
2018-06-02T03:19:42.751Z,14.43
2018-06-02T03:22:11.145Z,14.41
2018-06-02T03:24:40.211Z,14.37
2018-06-02T03:27:12.196Z,14.42
2018-06-02T03:29:40.501Z,14.47
2018-06-02T03:32:12.712Z,14.55
2018-06-02T03:34:41.012Z,14.60
2018-06-02T03:37:10.099Z,14.66
2018-06-02T03:39:38.362Z,14.81
2018-06-02T03:42:06.793Z,14.85
2018-06-02T03:44:35.123Z,14.90
2018-06-02T03:47:03.590Z,14.94
2018-06-02T03:49:32.159Z,14.98
2018-06-02T03:52:00.440Z,15.08
2018-06-02T03:54:28.769Z,15.15
2018-06-02T03:56:57.227Z,15.19
2018-06-02T03:59:25.737Z,15.18
2018-06-02T04:01:55.251Z,15.20
2018-06-02T04:04:23.596Z,15.07
2018-06-02T04:06:53.407Z,14.95
2018-06-02T04:09:22.816Z,14.87
2018-06-02T04:11:51.347Z,14.89
2018-06-02T04:14:25.982Z,14.94
2018-06-02T04:17:10.614Z,15.07
2018-06-02T04:19:53.131Z,15.17
2018-06-02T04:22:22.410Z,15.25
2018-06-02T04:25:08.595Z,15.19
2018-06-02T04:27:41.991Z,15.09
2018-06-02T04:30:19.033Z,15.05
2018-06-02T04:33:06.412Z,15.14
2018-06-02T04:35:53.309Z,15.29
2018-06-02T04:38:33.326Z,15.47
2018-06-02T04:41:12.229Z,15.78
2018-06-02T04:43:47.244Z,16.21
2018-06-02T04:46:16.499Z,16.57
2018-06-02T04:48:49.205Z,16.89
2018-06-02T04:51:25.851Z,17.01
2018-06-02T04:53:54.149Z,17.26
2018-06-02T04:56:31.685Z,17.58
2018-06-02T04:59:00.083Z,17.97
2018-06-02T05:01:35.139Z,18.14
2018-06-02T05:04:03.430Z,18.14
2018-06-02T05:06:32.651Z,18.16
2018-06-02T05:09:00.933Z,18.36
2018-06-02T05:11:33.983Z,18.26
2018-06-02T05:14:02.310Z,18.31
2018-06-02T05:16:30.718Z,18.42
2018-06-02T05:18:59.026Z,18.29
2018-06-02T05:21:28.322Z,18.24
2018-06-02T05:23:56.687Z,18.75
2018-06-02T05:26:24.994Z,19.27
2018-06-02T05:28:54.063Z,20.00
2018-06-02T05:31:22.499Z,21.36
2018-06-02T05:33:50.827Z,22.23
2018-06-02T05:36:19.101Z,22.49
2018-06-02T05:38:47.456Z,23.99
2018-06-02T05:41:15.756Z,24.25
2018-06-02T05:43:45.055Z,25.53
2018-06-02T05:46:14.340Z,26.74
2018-06-02T05:48:44.571Z,26.03
2018-06-02T05:51:22.782Z,26.41
2018-06-02T05:53:52.303Z,25.38
2018-06-02T05:56:20.807Z,25.96
2018-06-02T05:58:51.834Z,24.69
2018-06-02T06:01:40.106Z,26.28
2018-06-02T06:04:10.434Z,25.86
2018-06-02T06:06:44.809Z,27.43
2018-06-02T06:09:13.063Z,26.84
2018-06-02T06:11:47.280Z,27.01
2018-06-02T06:14:20.276Z,27.40
2018-06-02T06:16:58.940Z,28.85
2018-06-02T06:19:28.021Z,28.41
2018-06-02T06:21:58.439Z,29.16
2018-06-02T06:24:26.735Z,29.48
2018-06-02T06:26:55.806Z,29.90
2018-06-02T06:29:24.210Z,28.91
2018-06-02T06:31:52.481Z,30.10
2018-06-02T06:34:21.636Z,29.52
2018-06-02T06:36:49.941Z,28.78
2018-06-02T06:39:19.362Z,29.44
2018-06-02T06:41:56.739Z,30.80
2018-06-02T06:44:25.911Z,31.27
2018-06-02T06:47:08.010Z,31.27
2018-06-02T06:49:44.995Z,31.35
2018-06-02T06:52:22.040Z,32.22
2018-06-02T06:54:50.387Z,32.46
2018-06-02T06:57:23.271Z,31.52
2018-06-02T06:59:57.977Z,29.87
2018-06-02T07:02:33.808Z,30.32
2018-06-02T07:05:02.131Z,31.25
2018-06-02T07:07:58.174Z,31.92
2018-06-02T07:10:34.006Z,32.72
2018-06-02T07:13:08.763Z,33.03
2018-06-02T07:15:38.015Z,32.65
2018-06-02T07:18:08.032Z,32.73
2018-06-02T07:20:43.965Z,29.11
2018-06-02T07:23:14.195Z,30.09
2018-06-02T07:25:46.388Z,29.07
2018-06-02T07:28:16.366Z,27.56
2018-06-02T07:30:44.859Z,27.77
2018-06-02T07:33:26.923Z,27.07
2018-06-02T07:35:56.149Z,26.78
2018-06-02T07:38:24.604Z,28.62
2018-06-02T07:40:54.676Z,30.15
2018-06-02T07:43:22.927Z,31.27
2018-06-02T07:45:51.198Z,31.05
2018-06-02T07:48:25.375Z,29.37
2018-06-02T07:50:53.618Z,31.02
2018-06-02T07:53:21.864Z,31.20
2018-06-02T07:55:52.166Z,31.35
2018-06-02T07:58:28.959Z,32.11
2018-06-02T08:01:15.740Z,31.03
2018-06-02T08:03:45.154Z,31.32
2018-06-02T08:06:14.254Z,32.40
2018-06-02T08:08:53.833Z,31.23
2018-06-02T08:11:26.798Z,32.08
2018-06-02T08:13:57.061Z,32.76
2018-06-02T08:16:31.968Z,32.16
2018-06-02T08:19:06.076Z,30.07
2018-06-02T08:21:42.838Z,26.72
2018-06-02T08:24:11.159Z,28.01
2018-06-02T08:26:41.553Z,28.87
2018-06-02T08:29:17.549Z,26.73
2018-06-02T08:31:47.643Z,25.83
2018-06-02T08:34:19.302Z,25.13
2018-06-02T08:36:50.982Z,25.38
2018-06-02T08:39:22.098Z,26.01
2018-06-02T08:41:50.502Z,25.96
2018-06-02T08:44:24.457Z,26.29
2018-06-02T08:47:05.420Z,28.19
2018-06-02T08:49:45.397Z,28.64
2018-06-02T08:52:13.728Z,28.47
2018-06-02T08:54:44.878Z,27.01
2018-06-02T08:57:14.853Z,26.19
2018-06-02T08:59:45.179Z,28.60
2018-06-02T09:02:19.320Z,30.53
2018-06-02T09:04:50.484Z,30.95
2018-06-02T09:07:28.733Z,32.11
2018-06-02T09:10:03.478Z,30.89
2018-06-02T09:12:35.479Z,31.68
2018-06-02T09:15:06.967Z,32.19
2018-06-02T09:17:40.998Z,30.85
2018-06-02T09:20:14.991Z,30.56
2018-06-02T09:22:43.857Z,31.51
2018-06-02T09:25:12.254Z,33.09
2018-06-02T09:27:49.001Z,34.90
2018-06-02T09:30:20.538Z,34.06
2018-06-02T09:32:55.501Z,33.42
2018-06-02T09:38:10.037Z,30.80
2018-06-02T09:40:40.379Z,30.24
2018-06-02T09:43:14.663Z,31.30
2018-06-02T09:45:51.026Z,30.63
2018-06-02T09:48:24.025Z,31.71
2018-06-02T09:50:52.537Z,31.42
2018-06-02T09:53:22.987Z,29.52
2018-06-02T09:55:51.343Z,30.83
2018-06-02T09:58:20.770Z,30.13
2018-06-02T10:00:51.794Z,30.93
2018-06-02T10:03:24.012Z,31.84
2018-06-02T10:05:55.927Z,32.68
2018-06-02T10:08:31.209Z,32.82
2018-06-02T10:10:59.487Z,34.36
2018-06-02T10:13:28.576Z,33.97
2018-06-02T10:15:57.897Z,31.66
2018-06-02T10:18:27.178Z,31.24
2018-06-02T10:20:55.434Z,30.95
2018-06-02T10:23:35.283Z,32.33
2018-06-02T10:26:03.596Z,32.01
2018-06-02T10:28:35.480Z,33.24
2018-06-02T10:31:08.304Z,33.51
2018-06-02T10:33:42.883Z,33.90
2018-06-02T10:36:35.084Z,33.51
2018-06-02T10:39:04.506Z,35.59
2018-06-02T10:41:32.778Z,34.84
2018-06-02T10:44:01.077Z,31.92
2018-06-02T10:46:30.314Z,31.94
2018-06-02T10:49:03.339Z,32.00
2018-06-02T10:51:31.650Z,31.26
2018-06-02T10:54:09.620Z,33.17
2018-06-02T10:56:49.315Z,34.78
2018-06-02T10:59:19.592Z,32.63
2018-06-02T11:01:50.623Z,35.27
2018-06-02T11:04:37.084Z,34.45
2018-06-02T11:07:07.428Z,32.78
2018-06-02T11:09:35.764Z,33.45
2018-06-02T11:12:17.246Z,32.50
2018-06-02T11:14:49.671Z,31.00
2018-06-02T11:17:25.945Z,29.53
2018-06-02T11:19:55.237Z,30.32
2018-06-02T11:22:34.619Z,30.12
2018-06-02T11:25:10.508Z,32.30
2018-06-02T11:27:46.607Z,33.93
2018-06-02T11:30:19.731Z,35.44
2018-06-02T11:32:50.198Z,34.09
2018-06-02T11:35:20.383Z,33.47
2018-06-02T11:37:59.383Z,35.54
2018-06-02T11:40:35.535Z,35.47
2018-06-02T11:43:03.870Z,33.77
2018-06-02T11:45:34.329Z,34.54
2018-06-02T11:48:08.648Z,34.01
2018-06-02T11:50:40.728Z,33.49
2018-06-02T11:53:09.025Z,35.65
2018-06-02T11:55:39.430Z,34.52
2018-06-02T11:58:07.715Z,32.74
2018-06-02T12:00:35.993Z,33.09
2018-06-02T12:03:07.998Z,32.35
2018-06-02T12:05:36.526Z,32.16
2018-06-02T12:08:05.369Z,33.17
2018-06-02T12:10:37.474Z,33.83
2018-06-02T12:13:08.010Z,34.20
2018-06-02T12:15:39.244Z,32.00
2018-06-02T12:18:08.456Z,33.33
2018-06-02T12:20:37.205Z,33.26
2018-06-02T12:23:16.008Z,34.21
2018-06-02T12:25:48.045Z,33.15
2018-06-02T12:28:17.199Z,33.78
2018-06-02T12:30:46.238Z,33.22
2018-06-02T12:33:26.788Z,34.54
2018-06-02T12:35:55.054Z,33.91
2018-06-02T12:38:24.353Z,35.63
2018-06-02T12:40:53.726Z,36.97
2018-06-02T12:43:23.179Z,36.35
2018-06-02T12:45:52.330Z,38.41
2018-06-02T12:48:24.842Z,35.99
2018-06-02T12:50:54.222Z,35.46
2018-06-02T12:53:26.447Z,35.45
2018-06-02T12:55:56.406Z,37.45
2018-06-02T12:58:28.229Z,36.43
2018-06-02T13:00:56.563Z,35.86
2018-06-02T13:03:30.579Z,36.96
2018-06-02T13:05:59.860Z,38.16
2018-06-02T13:08:30.104Z,38.42
2018-06-02T13:10:58.388Z,39.93
2018-06-02T13:13:33.988Z,36.00
2018-06-02T13:16:02.380Z,34.62
2018-06-02T13:18:39.424Z,34.43
2018-06-02T13:21:08.829Z,35.62
2018-06-02T13:23:38.578Z,36.45
2018-06-02T13:26:06.926Z,37.38
2018-06-02T13:28:35.284Z,36.89
2018-06-02T13:31:07.709Z,37.14
2018-06-02T13:33:36.571Z,38.31
2018-06-02T13:36:05.277Z,34.52
2018-06-02T13:38:33.581Z,35.33
2018-06-02T13:41:05.644Z,39.80
2018-06-02T13:43:33.971Z,40.59
2018-06-02T13:46:06.221Z,37.18
2018-06-02T13:48:35.311Z,40.15
2018-06-02T13:51:04.407Z,38.67
2018-06-02T13:53:34.172Z,37.31
2018-06-02T13:56:02.544Z,36.18
2018-06-02T13:58:30.850Z,35.57
2018-06-02T14:01:00.143Z,36.79
2018-06-02T14:03:31.536Z,38.81
2018-06-02T14:05:59.951Z,40.06
2018-06-02T14:08:31.057Z,39.18
2018-06-02T14:11:00.075Z,38.38
2018-06-02T14:13:29.314Z,37.72
2018-06-02T14:15:58.630Z,37.39
2018-06-02T14:18:26.968Z,38.59
2018-06-02T14:20:55.605Z,41.75
2018-06-02T14:23:24.784Z,40.15
2018-06-02T14:25:53.293Z,38.09
2018-06-02T14:28:32.341Z,38.94
2018-06-02T14:31:11.895Z,38.35
2018-06-02T14:33:44.059Z,39.14
2018-06-02T14:36:14.281Z,39.86
2018-06-02T14:38:43.605Z,41.21
2018-06-02T14:41:16.106Z,42.43
2018-06-02T14:43:45.486Z,41.12
2018-06-02T14:46:14.593Z,42.69
2018-06-02T14:48:42.891Z,38.61
2018-06-02T14:51:16.480Z,38.50
2018-06-02T14:53:50.555Z,39.65
2018-06-02T14:56:18.970Z,38.80
2018-06-02T14:58:55.723Z,40.17
2018-06-02T15:01:30.543Z,38.13
2018-06-02T15:04:13.125Z,38.49
2018-06-02T15:06:43.523Z,38.82
2018-06-02T15:09:12.449Z,38.39
2018-06-02T15:11:41.727Z,38.21
2018-06-02T15:14:11.973Z,37.94
2018-06-02T15:16:53.278Z,40.15
2018-06-02T15:19:22.766Z,39.75
2018-06-02T15:21:54.679Z,41.96
2018-06-02T15:24:24.104Z,40.15
2018-06-02T15:26:58.384Z,39.77
2018-06-02T15:29:30.223Z,40.98
2018-06-02T15:32:02.118Z,40.50
2018-06-02T15:34:31.435Z,41.90
2018-06-02T15:37:01.395Z,42.68
2018-06-02T15:39:29.767Z,41.32
2018-06-02T15:42:08.812Z,40.04
2018-06-02T15:44:37.120Z,35.70
2018-06-02T15:47:10.700Z,35.85
2018-06-02T15:49:47.380Z,36.57
2018-06-02T15:52:17.074Z,35.52
2018-06-02T15:54:46.390Z,35.71
2018-06-02T15:57:15.724Z,33.06
2018-06-02T15:59:44.804Z,35.32
2018-06-02T16:02:13.045Z,34.74
2018-06-02T16:04:42.470Z,36.37
2018-06-02T16:07:14.331Z,39.10
2018-06-02T16:09:42.759Z,38.79
2018-06-02T16:12:12.979Z,36.48
2018-06-02T16:14:45.029Z,37.00
2018-06-02T16:17:13.404Z,35.64
2018-06-02T16:19:42.487Z,36.79
2018-06-02T16:22:14.389Z,37.08
2018-06-02T16:24:54.751Z,38.23
2018-06-02T16:27:23.125Z,37.89
2018-06-02T16:29:54.683Z,36.74
2018-06-02T16:32:23.003Z,36.18
2018-06-02T16:34:51.428Z,35.34
2018-06-02T16:37:23.031Z,36.92
2018-06-02T16:39:51.307Z,38.19
2018-06-02T16:42:21.658Z,36.54
2018-06-02T16:44:50.855Z,38.60
2018-06-02T16:47:26.601Z,36.63
2018-06-02T16:49:55.863Z,38.13
2018-06-02T16:52:24.316Z,37.16
2018-06-02T16:54:57.162Z,36.43
2018-06-02T16:57:26.443Z,35.90
2018-06-02T17:00:02.192Z,32.59
2018-06-02T17:02:30.471Z,33.55
2018-06-02T17:05:04.710Z,33.53
2018-06-02T17:07:34.189Z,34.47
2018-06-02T17:10:08.181Z,34.59
2018-06-02T17:12:40.163Z,34.80
2018-06-02T17:15:10.407Z,33.76
2018-06-02T17:17:38.790Z,32.81
2018-06-02T17:20:08.895Z,31.75
2018-06-02T17:22:39.841Z,31.35
2018-06-02T17:25:15.648Z,31.04
2018-06-02T17:27:52.445Z,30.58
2018-06-02T17:30:24.683Z,30.79
2018-06-02T17:32:56.188Z,30.60
2018-06-02T17:35:33.685Z,31.31
2018-06-02T17:38:07.884Z,33.91
2018-06-02T17:40:39.937Z,34.21
2018-06-02T17:43:08.264Z,33.38
2018-06-02T17:45:38.396Z,31.99
2018-06-02T17:48:06.741Z,30.82
2018-06-02T17:50:41.131Z,31.43
2018-06-02T17:53:12.732Z,31.90
2018-06-02T17:55:43.198Z,30.32
2018-06-02T17:58:16.611Z,29.29
2018-06-02T18:01:01.951Z,29.08
2018-06-02T18:03:40.012Z,27.41
2018-06-02T18:06:16.591Z,26.35
2018-06-02T18:08:50.551Z,25.95
2018-06-02T18:11:18.873Z,25.58
2018-06-02T18:13:47.124Z,25.21
2018-06-02T18:16:15.426Z,25.00
2018-06-02T18:18:44.727Z,24.76
2018-06-02T18:21:13.244Z,24.60
2018-06-02T18:23:43.340Z,24.32
2018-06-02T18:26:12.420Z,23.72
2018-06-02T18:28:43.274Z,23.34
2018-06-02T18:31:17.907Z,23.16
2018-06-02T18:33:54.915Z,23.01
2018-06-02T18:36:30.699Z,22.87
2018-06-02T18:38:59.077Z,22.69
2018-06-02T18:41:28.448Z,22.52
2018-06-02T18:44:00.005Z,22.35
2018-06-02T18:46:30.307Z,22.19
2018-06-02T18:49:00.170Z,22.05
2018-06-02T18:51:33.479Z,21.93
2018-06-02T18:54:01.916Z,21.79
2018-06-02T18:56:37.976Z,21.66
2018-06-02T18:59:08.527Z,21.43
2018-06-02T19:01:39.062Z,21.32
2018-06-02T19:04:07.453Z,21.30
2018-06-02T19:06:40.149Z,21.25
2018-06-02T19:09:08.405Z,21.15
2018-06-02T19:11:40.878Z,21.05
2018-06-02T19:14:09.348Z,20.92
2018-06-02T19:16:42.521Z,20.83
2018-06-02T19:19:11.759Z,20.77
2018-06-02T19:21:50.932Z,20.61
2018-06-02T19:24:24.018Z,20.63
2018-06-02T19:26:57.656Z,20.67
2018-06-02T19:29:33.375Z,20.80
2018-06-02T19:32:04.377Z,20.89
2018-06-02T19:34:36.252Z,20.89
2018-06-02T19:37:05.529Z,20.80
2018-06-02T19:39:33.887Z,20.72
2018-06-02T19:42:03.274Z,20.64
2018-06-02T19:44:42.816Z,20.61
2018-06-02T19:47:16.065Z,20.58
2018-06-02T19:49:46.380Z,20.54
2018-06-02T19:52:18.461Z,20.52
2018-06-02T19:54:48.464Z,20.48
2018-06-02T19:57:16.808Z,20.44
2018-06-02T19:59:45.114Z,20.40
2018-06-02T20:02:19.000Z,20.33
2018-06-02T20:04:52.125Z,20.26
2018-06-02T20:07:22.525Z,20.22
2018-06-02T20:09:55.842Z,20.17
2018-06-02T20:12:35.397Z,20.12
2018-06-02T20:15:18.957Z,20.01
2018-06-02T20:17:50.336Z,19.88
2018-06-02T20:21:03.879Z,19.85
2018-06-02T20:23:36.547Z,19.89
2018-06-02T20:26:13.867Z,19.96
2018-06-02T20:28:58.263Z,19.98
2018-06-02T20:31:32.796Z,19.97
2018-06-02T20:34:07.619Z,19.87
2018-06-02T20:36:43.778Z,19.72
2018-06-02T20:39:19.540Z,19.63
2018-06-02T20:41:54.182Z,19.54
2018-06-02T20:44:26.233Z,19.43
2018-06-02T20:46:56.971Z,19.42
2018-06-02T20:49:28.372Z,19.35
2018-06-02T20:52:03.247Z,19.26
2018-06-02T20:54:44.280Z,19.21
2018-06-02T20:57:16.087Z,19.06
2018-06-02T20:59:46.848Z,18.99
2018-06-02T21:02:24.385Z,18.98
2018-06-02T21:04:58.103Z,18.95
2018-06-02T21:07:31.233Z,18.95
2018-06-02T21:10:20.767Z,18.89
2018-06-02T21:12:54.999Z,18.81
2018-06-02T21:15:26.584Z,18.71
2018-06-02T21:18:11.390Z,18.62
2018-06-02T21:20:42.376Z,18.59
2018-06-02T21:23:20.382Z,18.55
2018-06-02T21:25:51.699Z,18.52
2018-06-02T21:28:23.364Z,18.51
2018-06-02T21:30:54.903Z,18.47
2018-06-02T21:33:27.517Z,18.41
2018-06-02T21:35:58.984Z,18.37
2018-06-02T21:38:31.040Z,18.31
2018-06-02T21:41:05.091Z,18.28
2018-06-02T21:43:35.552Z,18.19
2018-06-02T21:46:11.141Z,18.11
2018-06-02T21:48:42.274Z,18.13
2018-06-02T21:51:13.431Z,18.13
2018-06-02T21:53:43.501Z,18.12
2018-06-02T21:56:13.942Z,18.11
2018-06-02T21:58:45.403Z,18.03
2018-06-02T22:01:22.314Z,17.98
2018-06-02T22:03:57.803Z,17.94
2018-06-02T22:06:35.624Z,17.91
2018-06-02T22:09:11.042Z,17.84
2018-06-02T22:11:43.051Z,17.82
2018-06-02T22:14:26.841Z,17.83
2018-06-02T22:16:59.367Z,17.79
2018-06-02T22:19:47.879Z,17.72
2018-06-02T22:22:20.931Z,17.69
2018-06-02T22:25:07.223Z,17.65
2018-06-02T22:27:42.804Z,17.62
2018-06-02T22:30:14.499Z,17.61
2018-06-02T22:33:09.248Z,17.58
2018-06-02T22:35:49.960Z,17.58
2018-06-02T22:38:21.152Z,17.55
2018-06-02T22:40:55.627Z,17.52
2018-06-02T22:43:26.652Z,17.43
2018-06-02T22:46:07.441Z,17.38
2018-06-02T22:48:37.937Z,17.32
2018-06-02T22:51:10.940Z,17.29
2018-06-02T22:53:49.385Z,17.22
2018-06-02T22:56:20.441Z,17.16
2018-06-02T22:58:52.206Z,17.13
2018-06-02T23:01:22.890Z,17.13
2018-06-02T23:03:53.839Z,17.13
2018-06-02T23:06:26.410Z,17.08
2018-06-02T23:09:01.106Z,17.07
2018-06-02T23:11:31.778Z,17.04
2018-06-02T23:14:08.423Z,17.03
2018-06-02T23:16:51.328Z,17.00
2018-06-02T23:19:26.166Z,17.01
2018-06-02T23:21:56.801Z,16.96
2018-06-02T23:24:31.105Z,16.91
2018-06-02T23:27:06.182Z,16.83
2018-06-02T23:29:41.039Z,16.77
2018-06-02T23:32:12.846Z,16.74
2018-06-02T23:34:44.967Z,16.75
2018-06-02T23:37:15.010Z,16.73
2018-06-02T23:39:45.105Z,16.70
2018-06-02T23:42:15.219Z,16.69
2018-06-02T23:44:45.260Z,16.69
2018-06-02T23:47:31.105Z,16.68
2018-06-02T23:50:03.162Z,16.70
2018-06-02T23:52:38.000Z,16.63
2018-06-02T23:55:09.043Z,16.54
2018-06-02T23:57:47.339Z,16.53
